createdAt,value
2023-06-10T00:00:06.846Z,18.46
2023-06-10T00:02:37.125Z,18.47
2023-06-10T00:05:04.653Z,18.45
2023-06-10T00:07:31.545Z,18.26
2023-06-10T00:09:58.530Z,18.40
2023-06-10T00:12:25.484Z,18.30
2023-06-10T00:14:54.624Z,18.05
2023-06-10T00:17:24.088Z,18.14
2023-06-10T00:19:51.699Z,18.24
2023-06-10T00:22:18.755Z,18.08
2023-06-10T00:24:45.871Z,18.14
2023-06-10T00:27:12.806Z,18.20
2023-06-10T00:29:40.118Z,18.16
2023-06-10T00:32:10.201Z,18.32
2023-06-10T00:34:37.175Z,18.32
2023-06-10T00:37:04.354Z,18.44
2023-06-10T00:39:31.442Z,18.55
2023-06-10T00:41:58.588Z,18.46
2023-06-10T00:44:27.704Z,18.42
2023-06-10T00:46:56.918Z,18.66
2023-06-10T00:49:23.860Z,18.59
2023-06-10T00:51:53.907Z,18.61
2023-06-10T00:54:23.204Z,18.54
2023-06-10T00:56:52.926Z,18.58
2023-06-10T00:59:20.247Z,18.39
2023-06-10T01:01:50.201Z,18.23
2023-06-10T01:04:18.308Z,18.35
2023-06-10T01:07:04.103Z,18.46
2023-06-10T01:10:00.427Z,18.68
2023-06-10T01:13:03.945Z,18.20
2023-06-10T01:15:32.762Z,18.01
2023-06-10T01:18:10.627Z,18.08
2023-06-10T01:20:41.328Z,18.11
2023-06-10T01:23:14.793Z,18.21
2023-06-10T01:25:50.926Z,18.27
2023-06-10T01:28:33.759Z,18.02
2023-06-10T01:31:37.665Z,17.94
2023-06-10T01:34:11.992Z,17.88
2023-06-10T01:36:41.914Z,17.84
2023-06-10T01:39:11.772Z,17.53
2023-06-10T01:41:39.458Z,17.73
2023-06-10T01:44:06.424Z,17.82
2023-06-10T01:46:36.486Z,17.71
2023-06-10T01:49:03.737Z,17.51
2023-06-10T01:51:32.724Z,17.47
2023-06-10T01:53:59.731Z,17.52
2023-06-10T01:56:26.735Z,17.51
2023-06-10T01:58:56.609Z,17.29
2023-06-10T02:01:23.580Z,17.26
2023-06-10T02:03:55.189Z,17.37
2023-06-10T02:06:22.311Z,17.57
2023-06-10T02:08:49.245Z,17.51
2023-06-10T02:11:16.169Z,17.36
2023-06-10T02:13:43.118Z,17.25
2023-06-10T02:16:15.184Z,17.50
2023-06-10T02:18:45.235Z,17.64
2023-06-10T02:21:12.154Z,17.75
2023-06-10T02:23:39.137Z,17.80
2023-06-10T02:26:09.374Z,17.70
2023-06-10T02:28:38.881Z,17.41
2023-06-10T02:31:06.502Z,17.40
2023-06-10T02:33:34.891Z,17.47
2023-06-10T02:36:01.911Z,17.40
2023-06-10T02:38:28.830Z,17.40
2023-06-10T02:40:56.024Z,17.56
2023-06-10T02:43:25.279Z,17.25
2023-06-10T02:45:52.218Z,17.35
2023-06-10T02:48:23.869Z,17.48
2023-06-10T02:50:50.807Z,17.61
2023-06-10T02:53:19.880Z,17.38
2023-06-10T02:55:46.792Z,17.42
2023-06-10T02:58:13.854Z,17.41
2023-06-10T03:00:42.209Z,17.29
2023-06-10T03:03:09.609Z,17.36
2023-06-10T03:05:36.653Z,17.33
2023-06-10T03:08:03.740Z,17.65
2023-06-10T03:10:35.870Z,17.47
2023-06-10T03:13:06.045Z,17.40
2023-06-10T03:15:37.429Z,17.51
2023-06-10T03:18:04.592Z,17.44
2023-06-10T03:20:31.816Z,17.58
2023-06-10T03:23:01.488Z,17.50
2023-06-10T03:25:29.842Z,17.61
2023-06-10T03:27:56.883Z,17.66
2023-06-10T03:30:26.149Z,17.83
2023-06-10T03:32:53.129Z,17.89
2023-06-10T03:35:20.245Z,17.98
2023-06-10T03:37:47.602Z,18.02
2023-06-10T03:40:16.964Z,17.82
2023-06-10T03:42:45.175Z,17.94
2023-06-10T03:45:14.604Z,18.00
2023-06-10T03:47:45.034Z,18.16
2023-06-10T03:50:14.496Z,18.19
2023-06-10T03:52:42.088Z,18.06
2023-06-10T03:55:09.810Z,18.13
2023-06-10T03:57:36.991Z,17.85
2023-06-10T04:00:13.478Z,17.86
2023-06-10T04:02:47.536Z,17.94
2023-06-10T04:05:16.489Z,18.01
2023-06-10T04:07:44.975Z,17.85
2023-06-10T04:10:13.053Z,17.96
2023-06-10T04:12:40.707Z,17.95
2023-06-10T04:15:08.479Z,17.63
2023-06-10T04:17:36.278Z,17.80
2023-06-10T04:20:05.053Z,17.99
2023-06-10T04:22:31.973Z,17.93
2023-06-10T04:25:01.565Z,17.65
2023-06-10T04:27:28.901Z,17.73
2023-06-10T04:29:55.784Z,17.75
2023-06-10T04:32:25.206Z,17.81
2023-06-10T04:34:54.759Z,17.88
2023-06-10T04:37:21.935Z,17.93
2023-06-10T04:39:48.956Z,17.95
2023-06-10T04:42:16.123Z,18.03
2023-06-10T04:44:47.765Z,18.20
2023-06-10T04:47:18.215Z,18.42
2023-06-10T04:49:45.639Z,18.47
2023-06-10T04:52:12.650Z,18.47
2023-06-10T04:54:42.612Z,18.22
2023-06-10T04:57:09.602Z,18.37
2023-06-10T04:59:38.707Z,18.62
2023-06-10T05:02:06.633Z,18.55
2023-06-10T05:04:38.258Z,18.44
2023-06-10T05:07:06.081Z,18.32
2023-06-10T05:09:34.092Z,18.63
2023-06-10T05:12:03.907Z,18.67
2023-06-10T05:14:30.786Z,18.59
2023-06-10T05:17:07.139Z,18.86
2023-06-10T05:19:34.276Z,19.01
2023-06-10T05:22:04.024Z,19.02
2023-06-10T05:24:30.918Z,19.03
2023-06-10T05:27:00.538Z,19.01
2023-06-10T05:29:29.712Z,19.12
2023-06-10T05:31:58.798Z,18.96
2023-06-10T05:34:28.791Z,18.95
2023-06-10T05:36:55.780Z,19.16
2023-06-10T05:39:25.921Z,19.41
2023-06-10T05:41:55.304Z,19.70
2023-06-10T05:44:24.434Z,19.90
2023-06-10T05:46:54.404Z,19.83
2023-06-10T05:49:21.383Z,20.09
2023-06-10T05:51:48.345Z,20.26
2023-06-10T05:54:15.261Z,20.38
2023-06-10T05:56:42.207Z,20.25
2023-06-10T05:59:09.409Z,20.17
2023-06-10T06:01:38.503Z,20.09
2023-06-10T06:04:07.824Z,19.92
2023-06-10T06:06:39.417Z,19.98
2023-06-10T06:09:09.821Z,20.03
2023-06-10T06:11:36.912Z,20.04
2023-06-10T06:14:03.909Z,19.92
2023-06-10T06:16:36.392Z,19.95
2023-06-10T06:19:03.382Z,19.98
2023-06-10T06:21:37.516Z,20.26
2023-06-10T06:24:09.815Z,20.16
2023-06-10T06:26:39.346Z,20.11
2023-06-10T06:29:06.417Z,20.30
2023-06-10T06:31:33.385Z,20.48
2023-06-10T06:34:00.599Z,20.43
2023-06-10T06:36:30.017Z,20.44
2023-06-10T06:38:57.070Z,20.12
2023-06-10T06:41:24.034Z,20.20
2023-06-10T06:43:50.928Z,20.17
2023-06-10T06:46:19.950Z,20.05
2023-06-10T06:48:47.123Z,20.09
2023-06-10T06:51:14.288Z,20.12
2023-06-10T06:53:45.435Z,20.40
2023-06-10T06:56:13.379Z,20.63
2023-06-10T06:58:44.810Z,20.81
2023-06-10T07:01:11.719Z,20.69
2023-06-10T07:03:38.635Z,20.67
2023-06-10T07:06:08.046Z,20.51
2023-06-10T07:11:01.898Z,20.64
2023-06-10T07:13:28.873Z,21.03
2023-06-10T07:15:55.778Z,21.28
2023-06-10T07:18:22.745Z,21.15
2023-06-10T07:20:49.858Z,21.03
2023-06-10T07:23:23.895Z,21.15
2023-06-10T07:25:53.044Z,21.18
2023-06-10T07:28:20.005Z,21.71
2023-06-10T07:30:49.269Z,21.74
2023-06-10T07:33:16.285Z,21.99
2023-06-10T07:35:48.440Z,22.09
2023-06-10T07:38:15.515Z,22.32
2023-06-10T07:40:42.455Z,22.06
2023-06-10T07:43:11.548Z,21.86
2023-06-10T07:45:40.854Z,22.11
2023-06-10T07:48:10.354Z,22.30
2023-06-10T07:50:41.408Z,22.35
2023-06-10T07:53:10.878Z,22.62
2023-06-10T07:55:37.864Z,22.67
2023-06-10T07:58:06.868Z,22.93
2023-06-10T08:00:33.745Z,23.21
2023-06-10T08:03:02.876Z,23.17
2023-06-10T08:05:30.235Z,23.28
2023-06-10T08:08:01.376Z,23.46
2023-06-10T08:10:32.975Z,23.77
2023-06-10T08:13:02.424Z,23.71
2023-06-10T08:15:29.592Z,23.95
2023-06-10T08:17:59.600Z,24.21
2023-06-10T08:20:30.869Z,24.13
2023-06-10T08:22:57.767Z,24.13
2023-06-10T08:25:24.791Z,24.53
2023-06-10T08:27:53.072Z,24.50
2023-06-10T08:30:20.042Z,24.36
2023-06-10T08:32:49.604Z,24.41
2023-06-10T08:35:16.533Z,24.29
2023-06-10T08:37:46.409Z,24.40
2023-06-10T08:40:16.364Z,25.05
2023-06-10T08:43:14.101Z,25.35
2023-06-10T08:45:47.146Z,25.21
2023-06-10T08:48:16.165Z,25.30
2023-06-10T08:50:43.563Z,25.48
2023-06-10T08:53:19.615Z,25.95
2023-06-10T08:55:55.066Z,26.19
2023-06-10T08:58:22.412Z,25.69
2023-06-10T09:00:54.851Z,25.73
2023-06-10T09:03:23.073Z,25.87
2023-06-10T09:05:51.068Z,25.97
2023-06-10T09:08:18.347Z,26.03
2023-06-10T09:10:45.352Z,26.29
2023-06-10T09:13:12.279Z,26.60
2023-06-10T09:15:41.325Z,26.75
2023-06-10T09:18:08.544Z,26.58
2023-06-10T09:20:40.571Z,26.79
2023-06-10T09:23:10.792Z,27.13
2023-06-10T09:25:40.704Z,27.13
2023-06-10T09:28:16.082Z,26.92
2023-06-10T09:30:45.587Z,26.91
2023-06-10T09:33:17.261Z,26.69
2023-06-10T09:35:56.902Z,26.66
2023-06-10T09:38:31.020Z,26.94
2023-06-10T09:40:57.923Z,27.29
2023-06-10T09:43:39.763Z,27.79
2023-06-10T09:46:09.417Z,27.50
2023-06-10T09:48:42.699Z,27.45
2023-06-10T09:51:18.333Z,27.67
2023-06-10T09:53:55.443Z,27.82
2023-06-10T09:56:34.296Z,28.28
2023-06-10T09:59:01.266Z,28.20
2023-06-10T10:01:31.394Z,28.25
2023-06-10T10:03:58.906Z,28.24
2023-06-10T10:06:26.921Z,28.63
2023-06-10T10:08:55.273Z,28.78
2023-06-10T10:11:23.923Z,28.49
2023-06-10T10:13:56.168Z,28.51
2023-06-10T10:16:39.980Z,29.06
2023-06-10T10:19:28.866Z,29.35
2023-06-10T10:22:03.104Z,29.39
2023-06-10T10:24:38.012Z,29.33
2023-06-10T10:27:50.286Z,29.18
2023-06-10T10:30:24.330Z,29.71
2023-06-10T10:33:02.778Z,30.14
2023-06-10T10:35:31.724Z,30.24
2023-06-10T10:38:01.036Z,30.31
2023-06-10T10:40:30.562Z,30.08
2023-06-10T10:43:01.610Z,30.25
2023-06-10T10:45:34.681Z,30.17
2023-06-10T10:48:12.674Z,29.89
2023-06-10T10:50:42.313Z,29.74
2023-06-10T10:53:09.627Z,29.81
2023-06-10T10:55:39.731Z,30.01
2023-06-10T10:58:13.105Z,30.53
2023-06-10T11:00:46.278Z,31.24
2023-06-10T11:03:20.899Z,31.23
2023-06-10T11:05:52.220Z,31.01
2023-06-10T11:08:34.350Z,31.05
2023-06-10T11:11:01.395Z,31.25
2023-06-10T11:13:28.941Z,31.36
2023-06-10T11:15:59.540Z,31.30
2023-06-10T11:18:42.663Z,31.47
2023-06-10T11:21:11.663Z,31.13
2023-06-10T11:23:43.278Z,31.64
2023-06-10T11:26:44.687Z,31.45
2023-06-10T11:29:11.863Z,31.55
2023-06-10T11:31:50.574Z,31.86
2023-06-10T11:34:28.204Z,32.07
2023-06-10T11:36:58.698Z,32.12
2023-06-10T11:39:27.779Z,32.26
2023-06-10T11:41:55.198Z,32.53
2023-06-10T11:44:28.957Z,32.74
2023-06-10T11:47:00.194Z,32.15
2023-06-10T11:49:30.346Z,32.48
2023-06-10T11:51:59.677Z,32.77
2023-06-10T11:54:26.826Z,32.61
2023-06-10T11:57:01.102Z,32.57
2023-06-10T11:59:32.172Z,32.61
2023-06-10T12:02:04.762Z,32.21
2023-06-10T12:04:31.806Z,32.30
2023-06-10T12:06:58.808Z,32.72
2023-06-10T12:09:34.223Z,32.97
2023-06-10T12:12:09.880Z,32.84
2023-06-10T12:14:57.030Z,32.88
2023-06-10T12:17:39.528Z,33.06
2023-06-10T12:20:26.381Z,32.84
2023-06-10T12:22:53.824Z,33.26
2023-06-10T12:25:27.856Z,33.12
2023-06-10T12:27:58.422Z,32.57
2023-06-10T12:30:31.425Z,32.37
2023-06-10T12:32:59.176Z,33.08
2023-06-10T12:35:29.739Z,33.19
2023-06-10T12:37:58.789Z,33.09
2023-06-10T12:40:33.802Z,32.72
2023-06-10T12:43:02.241Z,32.81
2023-06-10T12:45:34.394Z,33.36
2023-06-10T12:48:26.194Z,33.37
2023-06-10T12:50:57.696Z,33.14
2023-06-10T12:53:25.749Z,33.26
2023-06-10T12:55:55.376Z,33.64
2023-06-10T12:58:25.804Z,33.80
2023-06-10T13:00:54.924Z,33.45
2023-06-10T13:03:22.697Z,33.57
2023-06-10T13:05:51.983Z,32.96
2023-06-10T13:08:19.200Z,32.62
2023-06-10T13:10:50.774Z,32.33
2023-06-10T13:13:18.713Z,32.68
2023-06-10T13:15:48.332Z,32.95
2023-06-10T13:18:15.336Z,32.93
2023-06-10T13:20:42.360Z,33.36
2023-06-10T13:23:11.599Z,33.08
2023-06-10T13:25:42.110Z,33.02
2023-06-10T13:28:09.055Z,33.34
2023-06-10T13:30:38.555Z,33.31
2023-06-10T13:33:07.836Z,32.87
2023-06-10T13:35:34.916Z,33.07
2023-06-10T13:38:04.179Z,33.08
2023-06-10T13:40:31.365Z,33.63
2023-06-10T13:42:58.482Z,33.88
2023-06-10T13:45:26.009Z,33.48
2023-06-10T13:47:53.105Z,33.52
2023-06-10T13:50:20.455Z,33.83
2023-06-10T13:52:47.429Z,33.32
2023-06-10T13:55:18.585Z,33.39
2023-06-10T13:57:47.633Z,33.74
2023-06-10T14:00:18.258Z,34.17
2023-06-10T14:02:45.891Z,34.53
2023-06-10T14:05:19.927Z,34.14
2023-06-10T14:07:47.074Z,33.91
2023-06-10T14:10:14.043Z,34.17
2023-06-10T14:12:41.089Z,34.07
2023-06-10T14:15:12.125Z,32.64
2023-06-10T14:17:41.526Z,32.46
2023-06-10T14:20:14.322Z,32.21
2023-06-10T14:22:41.637Z,32.21
2023-06-10T14:25:09.577Z,32.34
2023-06-10T14:27:36.739Z,32.71
2023-06-10T14:30:06.764Z,33.07
2023-06-10T14:32:34.030Z,33.47
2023-06-10T14:35:01.327Z,33.47
2023-06-10T14:37:30.861Z,33.08
2023-06-10T14:40:00.697Z,32.98
2023-06-10T14:42:30.478Z,33.18
2023-06-10T14:44:57.482Z,33.32
2023-06-10T14:47:24.772Z,33.55
2023-06-10T14:49:54.074Z,33.81
2023-06-10T14:52:21.010Z,33.14
2023-06-10T14:54:50.312Z,32.81
2023-06-10T14:57:17.436Z,32.73
2023-06-10T14:59:44.459Z,32.66
2023-06-10T15:02:14.404Z,32.91
2023-06-10T15:04:41.396Z,33.03
2023-06-10T15:07:11.064Z,32.78
2023-06-10T15:09:40.089Z,32.70
2023-06-10T15:12:07.700Z,32.77
2023-06-10T15:14:34.674Z,32.88
2023-06-10T15:17:01.751Z,33.24
2023-06-10T15:19:31.389Z,33.54
2023-06-10T15:22:01.379Z,33.87
2023-06-10T15:24:28.391Z,34.02
2023-06-10T15:26:58.383Z,33.84
2023-06-10T15:29:28.027Z,33.87
2023-06-10T15:32:00.017Z,33.35
2023-06-10T15:34:29.586Z,33.08
2023-06-10T15:36:59.623Z,33.05
2023-06-10T15:39:28.376Z,32.43
2023-06-10T15:41:57.808Z,32.55
2023-06-10T15:44:27.282Z,32.50
2023-06-10T15:46:54.378Z,32.38
2023-06-10T15:49:21.338Z,32.61
2023-06-10T15:51:53.000Z,32.67
2023-06-10T15:54:20.034Z,32.43
2023-06-10T15:56:47.021Z,32.21
2023-06-10T15:59:14.181Z,32.22
2023-06-10T16:01:41.187Z,32.34
2023-06-10T16:04:13.312Z,32.42
2023-06-10T16:06:40.554Z,32.59
2023-06-10T16:09:10.207Z,32.55
2023-06-10T16:11:37.331Z,32.22
2023-06-10T16:14:04.413Z,32.28
2023-06-10T16:16:31.463Z,31.95
2023-06-10T16:18:58.875Z,32.06
2023-06-10T16:21:26.224Z,32.28
2023-06-10T16:23:53.432Z,32.33
2023-06-10T16:26:23.332Z,32.22
2023-06-10T16:28:50.444Z,31.93
2023-06-10T16:31:17.538Z,31.87
2023-06-10T16:33:44.532Z,31.74
2023-06-10T16:36:11.497Z,32.00
2023-06-10T16:38:38.418Z,32.00
2023-06-10T16:41:05.412Z,32.00
2023-06-10T16:43:34.925Z,32.10
2023-06-10T16:46:02.098Z,31.98
2023-06-10T16:48:31.255Z,31.97
2023-06-10T16:50:58.432Z,31.98
2023-06-10T16:53:25.324Z,31.72
2023-06-10T16:55:52.367Z,31.85
2023-06-10T16:58:19.328Z,32.02
2023-06-10T17:00:46.964Z,32.00
2023-06-10T17:03:17.752Z,32.09
2023-06-10T17:05:47.986Z,32.15
2023-06-10T17:08:19.977Z,31.92
2023-06-10T17:10:47.007Z,32.04
2023-06-10T17:13:14.060Z,31.95
2023-06-10T17:15:41.795Z,31.84
2023-06-10T17:18:11.920Z,31.81
2023-06-10T17:20:39.051Z,31.89
2023-06-10T17:23:11.702Z,31.90
2023-06-10T17:25:38.810Z,31.71
2023-06-10T17:28:09.012Z,31.79
2023-06-10T17:30:36.136Z,31.63
2023-06-10T17:33:03.278Z,31.65
2023-06-10T17:35:30.460Z,31.28
2023-06-10T17:38:00.673Z,31.10
2023-06-10T17:40:29.957Z,31.20
2023-06-10T17:43:00.190Z,31.35
2023-06-10T17:45:33.025Z,31.54
2023-06-10T17:48:00.078Z,31.45
2023-06-10T17:50:30.006Z,31.38
2023-06-10T17:52:56.893Z,31.28
2023-06-10T17:55:26.719Z,31.15
2023-06-10T17:57:58.464Z,31.27
2023-06-10T18:00:31.158Z,31.02
2023-06-10T18:02:58.251Z,30.98
2023-06-10T18:05:25.325Z,31.14
2023-06-10T18:07:55.426Z,30.86
2023-06-10T18:10:22.505Z,31.16
2023-06-10T18:12:49.481Z,30.87
2023-06-10T18:15:16.513Z,30.51
2023-06-10T18:17:46.217Z,30.64
2023-06-10T18:20:14.476Z,30.48
2023-06-10T18:22:41.462Z,30.20
2023-06-10T18:25:09.036Z,29.84
2023-06-10T18:27:39.494Z,29.93
2023-06-10T18:30:10.421Z,29.85
2023-06-10T18:32:37.569Z,29.78
2023-06-10T18:35:07.751Z,29.58
2023-06-10T18:37:35.118Z,29.51
2023-06-10T18:40:02.323Z,29.74
2023-06-10T18:42:31.396Z,29.39
2023-06-10T18:45:03.269Z,29.22
2023-06-10T18:47:40.842Z,29.20
2023-06-10T18:50:16.226Z,29.21
2023-06-10T18:52:43.170Z,29.04
2023-06-10T18:55:10.403Z,28.82
2023-06-10T18:57:37.481Z,28.57
2023-06-10T19:00:07.404Z,28.17
2023-06-10T19:02:37.377Z,28.47
2023-06-10T19:05:04.817Z,28.37
2023-06-10T19:07:32.120Z,28.35
2023-06-10T19:10:03.872Z,27.97
2023-06-10T19:12:30.853Z,27.94
2023-06-10T19:14:57.903Z,27.61
2023-06-10T19:17:24.964Z,26.89
2023-06-10T19:19:53.975Z,26.64
2023-06-10T19:22:23.430Z,26.62
2023-06-10T19:25:08.534Z,26.20
2023-06-10T19:27:38.010Z,25.74
2023-06-10T19:30:11.239Z,25.65
2023-06-10T19:32:38.426Z,25.70
2023-06-10T19:35:08.958Z,25.21
2023-06-10T19:37:36.176Z,25.11
2023-06-10T19:40:08.271Z,25.10
2023-06-10T19:42:39.792Z,25.33
2023-06-10T19:45:09.545Z,25.53
2023-06-10T19:47:41.439Z,25.28
2023-06-10T19:50:14.272Z,25.31
2023-06-10T19:52:41.459Z,25.56
2023-06-10T19:55:09.598Z,25.58
2023-06-10T19:57:39.734Z,25.67
2023-06-10T20:00:08.774Z,25.57
2023-06-10T20:02:38.353Z,25.52
2023-06-10T20:05:08.049Z,25.62
2023-06-10T20:07:37.306Z,25.68
2023-06-10T20:10:04.851Z,25.70
2023-06-10T20:12:31.882Z,25.71
2023-06-10T20:15:01.807Z,25.97
2023-06-10T20:17:28.934Z,26.10
2023-06-10T20:19:56.158Z,26.19
2023-06-10T20:22:23.155Z,26.30
2023-06-10T20:24:55.988Z,26.31
2023-06-10T20:27:25.560Z,26.42
2023-06-10T20:29:57.196Z,26.23
2023-06-10T20:32:24.853Z,26.20
2023-06-10T20:34:52.234Z,26.03
2023-06-10T20:37:19.311Z,26.07
2023-06-10T20:39:53.304Z,26.01
2023-06-10T20:42:22.748Z,25.83
2023-06-10T20:44:52.804Z,25.66
2023-06-10T20:47:22.766Z,25.77
2023-06-10T20:49:52.498Z,25.86
2023-06-10T20:52:22.411Z,25.90
2023-06-10T20:54:51.654Z,25.75
2023-06-10T20:57:21.827Z,25.62
2023-06-10T20:59:49.203Z,25.66
2023-06-10T21:02:16.260Z,25.19
2023-06-10T21:04:43.277Z,24.90
2023-06-10T21:07:10.654Z,24.99
2023-06-10T21:09:37.567Z,24.99
2023-06-10T21:12:05.166Z,24.83
2023-06-10T21:14:32.138Z,24.70
2023-06-10T21:16:59.235Z,24.66
2023-06-10T21:19:26.122Z,24.58
2023-06-10T21:21:55.292Z,24.44
2023-06-10T21:24:22.262Z,24.34
2023-06-10T21:26:49.239Z,24.19
2023-06-10T21:29:19.172Z,24.24
2023-06-10T21:31:51.188Z,24.07
2023-06-10T21:34:22.870Z,23.98
2023-06-10T21:36:52.030Z,23.89
2023-06-10T21:39:21.921Z,24.20
2023-06-10T21:41:51.145Z,23.93
2023-06-10T21:44:18.036Z,23.70
2023-06-10T21:46:44.982Z,23.72
2023-06-10T21:49:16.425Z,23.28
2023-06-10T21:51:45.676Z,23.54
2023-06-10T21:54:13.508Z,23.42
2023-06-10T21:56:40.904Z,23.36
2023-06-10T21:59:07.785Z,23.23
2023-06-10T22:01:36.715Z,23.28
2023-06-10T22:04:03.991Z,23.25
2023-06-10T22:06:34.709Z,23.16
2023-06-10T22:09:04.199Z,22.99
2023-06-10T22:11:31.210Z,22.62
2023-06-10T22:13:58.156Z,22.56
2023-06-10T22:16:25.136Z,22.80
2023-06-10T22:18:54.612Z,22.88
2023-06-10T22:21:26.161Z,22.94
2023-06-10T22:23:55.680Z,22.65
2023-06-10T22:26:36.865Z,22.82
2023-06-10T22:29:13.011Z,22.86
2023-06-10T22:31:39.980Z,22.57
2023-06-10T22:34:06.926Z,22.55
2023-06-10T22:36:37.343Z,22.50
2023-06-10T22:39:12.761Z,22.39
2023-06-10T22:41:41.012Z,22.14
2023-06-10T22:44:07.965Z,22.27
2023-06-10T22:46:37.618Z,22.28
2023-06-10T22:49:04.827Z,22.17
2023-06-10T22:51:34.590Z,21.91
2023-06-10T22:54:01.455Z,22.08
2023-06-10T22:56:28.455Z,21.73
2023-06-10T22:58:58.436Z,21.57
2023-06-10T23:01:25.521Z,21.53
2023-06-10T23:03:55.524Z,21.39
2023-06-10T23:06:22.803Z,21.65
2023-06-10T23:08:51.887Z,21.63
2023-06-10T23:11:18.894Z,21.47
2023-06-10T23:13:45.887Z,21.56
2023-06-10T23:16:15.872Z,21.58
2023-06-10T23:18:42.832Z,21.48
2023-06-10T23:21:15.777Z,21.47
2023-06-10T23:23:46.089Z,21.53
2023-06-10T23:26:13.110Z,21.50
2023-06-10T23:28:39.976Z,21.37
2023-06-10T23:31:08.935Z,21.24
2023-06-10T23:33:36.057Z,21.21
2023-06-10T23:36:06.175Z,21.36
2023-06-10T23:38:35.656Z,21.38
2023-06-10T23:41:02.582Z,21.40
2023-06-10T23:43:29.500Z,21.42
2023-06-10T23:45:56.425Z,21.28
2023-06-10T23:48:25.759Z,21.21
2023-06-10T23:50:55.982Z,21.10
2023-06-10T23:53:25.309Z,21.01
2023-06-10T23:55:52.317Z,20.93
2023-06-10T23:58:19.516Z,20.80
